createdAt,value
2023-04-06T00:01:34.238Z,25.72
2023-04-06T00:04:03.939Z,24.52
2023-04-06T00:06:33.540Z,24.15
2023-04-06T00:09:03.441Z,21.55
2023-04-06T00:11:32.796Z,22.37
2023-04-06T00:14:02.595Z,23.27
2023-04-06T00:16:31.894Z,26.15
2023-04-06T00:19:01.156Z,23.22
2023-04-06T00:21:32.323Z,23.25
2023-04-06T00:24:02.090Z,23.27
2023-04-06T00:26:31.352Z,23.27
2023-04-06T00:29:01.331Z,22.48
2023-04-06T00:31:31.555Z,21.35
2023-04-06T00:34:00.964Z,22.75
2023-04-06T00:36:31.152Z,23.52
2023-04-06T00:39:00.718Z,24.32
2023-04-06T00:41:30.376Z,22.10
2023-04-06T00:43:59.749Z,23.27
2023-04-06T00:46:29.159Z,22.95
2023-04-06T00:48:59.245Z,24.27
2023-04-06T00:51:28.831Z,24.95
2023-04-06T00:53:58.519Z,25.37
2023-04-06T00:56:28.521Z,22.52
2023-04-06T00:58:58.563Z,24.05
2023-04-06T01:01:29.710Z,23.62
2023-04-06T01:04:03.276Z,24.65
2023-04-06T01:06:34.224Z,22.58
2023-04-06T01:09:04.273Z,23.15
2023-04-06T01:11:33.599Z,21.80
2023-04-06T01:14:04.239Z,23.50
2023-04-06T01:16:38.423Z,25.85
2023-04-06T01:19:12.677Z,23.55
2023-04-06T01:21:44.469Z,22.77
2023-04-06T01:24:34.509Z,24.10
2023-04-06T01:27:14.949Z,25.50
2023-04-06T01:29:49.246Z,27.35
2023-04-06T01:32:20.451Z,28.55
2023-04-06T01:34:52.053Z,29.63
2023-04-06T01:37:23.010Z,33.70
2023-04-06T01:39:54.265Z,27.48
2023-04-06T01:42:25.267Z,28.23
2023-04-06T01:44:54.857Z,30.05
2023-04-06T01:47:24.222Z,27.65
2023-04-06T01:49:53.662Z,25.88
2023-04-06T01:52:24.597Z,27.07
2023-04-06T01:54:54.926Z,30.62
2023-04-06T01:57:26.551Z,26.27
2023-04-06T01:59:57.735Z,27.57
2023-04-06T02:02:28.919Z,27.30
2023-04-06T02:05:00.812Z,28.30
2023-04-06T02:07:30.898Z,28.07
2023-04-06T02:10:00.453Z,30.32
2023-04-06T02:12:31.431Z,27.93
2023-04-06T02:15:00.896Z,28.85
2023-04-06T02:17:30.372Z,26.50
2023-04-06T02:20:00.049Z,31.50
2023-04-06T02:22:29.374Z,28.80
2023-04-06T02:24:58.846Z,30.45
2023-04-06T02:27:28.320Z,29.07
2023-04-06T02:29:57.620Z,28.38
2023-04-06T02:32:27.257Z,30.12
2023-04-06T02:34:57.796Z,32.28
2023-04-06T02:37:27.410Z,32.00
2023-04-06T02:39:56.900Z,31.57
2023-04-06T02:42:27.884Z,27.75
2023-04-06T02:44:57.994Z,29.42
2023-04-06T02:47:28.992Z,30.00
2023-04-06T02:49:58.417Z,30.60
2023-04-06T02:52:28.355Z,32.38
2023-04-06T02:54:58.177Z,31.85
2023-04-06T02:57:29.806Z,32.30
2023-04-06T02:59:59.130Z,33.78
2023-04-06T03:02:30.593Z,31.95
2023-04-06T03:05:01.633Z,30.80
2023-04-06T03:07:33.070Z,32.42
2023-04-06T03:10:02.390Z,32.23
2023-04-06T03:12:32.865Z,30.30
2023-04-06T03:15:07.496Z,28.62
2023-04-06T03:17:38.533Z,30.50
2023-04-06T03:20:10.283Z,34.67
2023-04-06T03:22:39.991Z,30.77
2023-04-06T03:25:11.416Z,30.10
2023-04-06T03:27:41.754Z,31.68
2023-04-06T03:30:13.568Z,31.55
2023-04-06T03:32:42.843Z,33.63
2023-04-06T03:35:12.369Z,33.80
2023-04-06T03:37:41.718Z,35.15
2023-04-06T03:40:11.969Z,34.27
2023-04-06T03:42:41.259Z,31.60
2023-04-06T03:45:14.089Z,33.18
2023-04-06T03:47:45.584Z,35.80
2023-04-06T03:50:15.294Z,30.20
2023-04-06T03:52:46.587Z,34.63
2023-04-06T03:55:16.627Z,31.45
2023-04-06T03:57:46.183Z,33.42
2023-04-06T04:00:16.402Z,34.38
2023-04-06T04:02:46.053Z,33.42
2023-04-06T04:05:16.638Z,31.68
2023-04-06T04:07:47.516Z,35.95
2023-04-06T04:10:17.152Z,34.90
2023-04-06T04:12:46.600Z,33.35
2023-04-06T04:15:16.338Z,38.02
2023-04-06T04:17:47.290Z,34.58
2023-04-06T04:20:17.529Z,33.83
2023-04-06T04:22:47.010Z,35.05
2023-04-06T04:25:16.713Z,31.73
2023-04-06T04:27:47.919Z,35.55
2023-04-06T04:30:17.411Z,34.88
2023-04-06T04:32:46.738Z,30.92
2023-04-06T04:35:17.917Z,34.03
2023-04-06T04:37:47.449Z,36.45
2023-04-06T04:40:18.377Z,29.20
2023-04-06T04:42:49.471Z,34.45
2023-04-06T04:45:20.863Z,34.38
2023-04-06T04:47:50.672Z,34.13
2023-04-06T04:50:20.415Z,32.58
2023-04-06T04:52:51.501Z,30.30
2023-04-06T04:55:25.759Z,32.73
2023-04-06T04:57:56.852Z,34.15
2023-04-06T05:00:27.861Z,33.75
2023-04-06T05:02:59.278Z,36.13
2023-04-06T05:05:30.520Z,34.30
2023-04-06T05:08:00.397Z,34.75
2023-04-06T05:10:43.721Z,30.75
2023-04-06T05:13:13.639Z,33.80
2023-04-06T05:15:43.279Z,29.18
2023-04-06T05:18:33.155Z,32.42
2023-04-06T05:21:02.828Z,36.25
2023-04-06T05:23:33.888Z,35.15
2023-04-06T05:26:04.178Z,33.55
2023-04-06T05:28:35.153Z,35.45
2023-04-06T05:31:04.777Z,31.60
2023-04-06T05:33:36.114Z,35.98
2023-04-06T05:36:08.214Z,33.02
2023-04-06T05:38:39.660Z,33.15
2023-04-06T05:41:10.675Z,34.95
2023-04-06T05:43:41.933Z,33.45
2023-04-06T05:46:11.961Z,40.25
2023-04-06T05:48:42.224Z,34.95
2023-04-06T05:51:12.188Z,39.40
2023-04-06T05:53:43.313Z,37.93
2023-04-06T05:56:12.641Z,36.83
2023-04-06T05:58:42.662Z,37.08
2023-04-06T06:01:12.959Z,36.95
2023-04-06T06:03:43.934Z,37.95
2023-04-06T06:06:13.377Z,35.33
2023-04-06T06:08:50.808Z,33.85
2023-04-06T06:11:20.370Z,32.45
2023-04-06T06:13:49.884Z,34.73
2023-04-06T06:16:20.681Z,34.03
2023-04-06T06:18:50.753Z,34.60
2023-04-06T06:21:20.874Z,34.30
2023-04-06T06:23:51.254Z,34.63
2023-04-06T06:26:22.843Z,36.23
2023-04-06T06:28:52.490Z,33.25
2023-04-06T06:31:23.721Z,33.95
2023-04-06T06:33:53.195Z,35.35
2023-04-06T06:36:23.009Z,34.15
2023-04-06T06:38:52.771Z,36.88
2023-04-06T06:41:23.211Z,36.35
2023-04-06T06:43:52.534Z,33.63
2023-04-06T06:46:23.051Z,34.48
2023-04-06T06:48:52.368Z,33.50
2023-04-06T06:51:21.717Z,36.58
2023-04-06T06:53:51.001Z,35.03
2023-04-06T06:56:20.352Z,33.73
2023-04-06T06:58:50.369Z,37.17
2023-04-06T07:01:19.783Z,34.70
2023-04-06T07:03:49.682Z,36.33
2023-04-06T07:06:18.975Z,35.28
2023-04-06T07:08:49.057Z,34.43
2023-04-06T07:11:18.333Z,34.13
2023-04-06T07:13:47.747Z,34.10
2023-04-06T07:16:17.269Z,34.13
2023-04-06T07:18:47.012Z,31.10
2023-04-06T07:21:16.292Z,34.78
2023-04-06T07:23:45.842Z,34.00
2023-04-06T07:26:15.129Z,31.87
2023-04-06T07:28:44.708Z,37.00
2023-04-06T07:31:14.556Z,32.85
2023-04-06T07:33:44.237Z,38.10
2023-04-06T07:36:13.547Z,34.20
2023-04-06T07:38:43.787Z,35.63
2023-04-06T07:41:13.203Z,34.00
2023-04-06T07:43:43.077Z,34.60
2023-04-06T07:46:12.456Z,35.63
2023-04-06T07:48:42.265Z,33.75
2023-04-06T07:51:13.315Z,32.17
2023-04-06T07:53:43.354Z,35.23
2023-04-06T07:56:13.345Z,38.53
2023-04-06T07:58:42.801Z,33.58
2023-04-06T08:01:12.231Z,34.35
2023-04-06T08:03:42.064Z,38.58
2023-04-06T08:06:11.620Z,33.95
2023-04-06T08:08:41.331Z,37.28
2023-04-06T08:11:11.004Z,33.95
2023-04-06T08:13:40.678Z,34.23
2023-04-06T08:16:09.975Z,34.63
2023-04-06T08:18:39.756Z,36.48
2023-04-06T08:21:09.081Z,38.48
2023-04-06T08:23:38.737Z,40.40
2023-04-06T08:26:08.045Z,39.13
2023-04-06T08:28:37.412Z,38.00
2023-04-06T08:31:07.593Z,39.03
2023-04-06T08:33:37.956Z,37.48
2023-04-06T08:36:11.834Z,40.17
2023-04-06T08:38:42.561Z,39.30
2023-04-06T08:41:12.816Z,40.45
2023-04-06T08:43:48.126Z,38.40
2023-04-06T08:46:19.473Z,37.25
2023-04-06T08:48:52.461Z,42.53
2023-04-06T08:51:21.812Z,37.90
2023-04-06T08:53:52.876Z,35.30
2023-04-06T08:56:26.637Z,37.95
2023-04-06T08:58:57.347Z,35.90
2023-04-06T09:01:28.859Z,34.63
2023-04-06T09:04:01.662Z,33.80
2023-04-06T09:06:31.870Z,22.67
2023-04-06T09:09:01.208Z,27.20
2023-04-06T09:11:30.708Z,23.05
2023-04-06T09:13:59.967Z,15.95
2023-04-06T09:16:29.298Z,16.65
2023-04-06T09:19:03.291Z,15.53
2023-04-06T09:21:32.657Z,14.43
2023-04-06T09:24:02.937Z,15.13
2023-04-06T09:26:33.990Z,17.20
2023-04-06T09:29:04.528Z,15.10
2023-04-06T09:31:34.303Z,18.25
2023-04-06T09:34:04.566Z,17.10
2023-04-06T09:36:35.862Z,16.20
2023-04-06T09:39:06.097Z,16.50
2023-04-06T09:41:37.664Z,17.30
2023-04-06T09:44:11.753Z,17.55
2023-04-06T09:46:58.874Z,17.67
2023-04-06T09:49:15.052Z,19.77
2023-04-06T09:52:02.073Z,20.85
2023-04-06T09:54:32.996Z,19.80
2023-04-06T09:57:17.788Z,18.85
2023-04-06T09:59:59.060Z,20.15
2023-04-06T10:02:51.909Z,20.68
2023-04-06T10:08:11.124Z,18.32
2023-04-06T10:10:40.837Z,19.62
2023-04-06T10:13:12.751Z,22.75
2023-04-06T10:15:42.026Z,17.35
2023-04-06T10:18:11.414Z,18.90
2023-04-06T10:20:58.231Z,23.90
2023-04-06T10:23:40.228Z,17.50
2023-04-06T10:26:12.730Z,17.55
2023-04-06T10:31:12.199Z,17.52
2023-04-06T10:33:42.454Z,17.07
2023-04-06T10:36:13.893Z,17.90
2023-04-06T10:38:43.953Z,19.73
2023-04-06T10:41:14.948Z,18.95
2023-04-06T10:43:45.894Z,17.80
2023-04-06T10:46:15.517Z,17.20
2023-04-06T10:48:51.048Z,18.48
2023-04-06T10:51:21.441Z,17.75
2023-04-06T10:53:51.108Z,16.80
2023-04-06T10:56:23.760Z,17.62
2023-04-06T11:01:25.932Z,16.62
2023-04-06T11:04:00.535Z,17.15
2023-04-06T11:06:33.531Z,18.55
2023-04-06T11:09:03.024Z,20.80
2023-04-06T11:11:32.399Z,17.95
2023-04-06T11:14:02.908Z,19.65
2023-04-06T11:16:34.022Z,18.77
2023-04-06T11:19:04.855Z,21.20
2023-04-06T11:21:46.970Z,20.60
2023-04-06T11:24:24.771Z,19.95
2023-04-06T11:26:59.185Z,20.17
2023-04-06T11:29:30.979Z,19.90
2023-04-06T11:32:05.193Z,22.90
2023-04-06T11:34:39.516Z,19.73
2023-04-06T11:37:13.545Z,19.92
2023-04-06T11:39:52.057Z,21.27
2023-04-06T11:42:25.427Z,24.12
2023-04-06T11:44:58.309Z,21.05
2023-04-06T11:47:35.683Z,20.55
2023-04-06T11:50:15.978Z,22.95
2023-04-06T11:52:45.331Z,23.65
2023-04-06T11:55:19.214Z,22.82
2023-04-06T11:57:48.455Z,26.82
2023-04-06T12:00:19.164Z,25.17
2023-04-06T12:02:50.010Z,25.43
2023-04-06T12:05:19.910Z,25.57
2023-04-06T12:07:49.278Z,28.32
2023-04-06T12:10:18.739Z,23.25
2023-04-06T12:12:48.369Z,26.55
2023-04-06T12:15:17.996Z,30.10
2023-04-06T12:17:47.873Z,25.23
2023-04-06T12:20:25.750Z,27.55
2023-04-06T12:22:48.436Z,28.32
2023-04-06T12:25:19.394Z,28.45
2023-04-06T12:27:48.725Z,26.12
2023-04-06T12:30:18.436Z,29.18
2023-04-06T12:32:50.436Z,26.50
2023-04-06T12:35:18.839Z,31.97
2023-04-06T12:37:48.251Z,30.27
2023-04-06T12:40:18.055Z,31.37
2023-04-06T12:42:47.873Z,30.02
2023-04-06T12:45:17.916Z,28.47
2023-04-06T12:50:46.579Z,30.52
2023-04-06T12:53:16.169Z,30.90
2023-04-06T12:55:45.707Z,28.80
2023-04-06T12:58:15.840Z,32.75
2023-04-06T13:00:45.736Z,28.87
2023-04-06T13:03:15.180Z,30.65
2023-04-06T13:05:49.138Z,29.75
2023-04-06T13:08:19.988Z,31.20
2023-04-06T13:10:50.868Z,28.75
2023-04-06T13:13:24.012Z,31.05
2023-04-06T13:15:54.213Z,29.15
2023-04-06T13:18:24.194Z,27.73
2023-04-06T13:20:53.480Z,29.27
2023-04-06T13:23:22.743Z,29.25
2023-04-06T13:26:08.863Z,29.12
2023-04-06T13:28:39.920Z,30.17
2023-04-06T13:31:10.691Z,31.05
2023-04-06T13:33:41.753Z,29.75
2023-04-06T13:36:11.304Z,27.70
2023-04-06T13:38:40.681Z,29.55
2023-04-06T13:41:10.692Z,30.85
2023-04-06T13:43:40.034Z,28.32
2023-04-06T13:46:09.344Z,33.48
2023-04-06T13:48:38.637Z,32.33
2023-04-06T13:51:15.564Z,36.77
2023-04-06T13:53:44.886Z,29.67
2023-04-06T13:56:14.191Z,27.98
2023-04-06T14:01:46.924Z,30.37
2023-04-06T14:04:16.580Z,28.75
2023-04-06T14:06:47.575Z,28.35
2023-04-06T14:09:16.880Z,32.13
2023-04-06T14:11:46.249Z,29.60
2023-04-06T14:14:15.714Z,28.80
2023-04-06T14:16:47.976Z,33.53
2023-04-06T14:19:19.821Z,32.30
2023-04-06T14:21:49.673Z,33.40
2023-04-06T14:24:20.228Z,30.80
2023-04-06T14:26:49.729Z,35.58
2023-04-06T14:29:19.327Z,33.33
2023-04-06T14:31:50.043Z,32.90
2023-04-06T14:34:40.989Z,34.33
2023-04-06T14:37:12.008Z,34.30
2023-04-06T14:39:41.319Z,33.13
2023-04-06T14:42:10.995Z,35.43
2023-04-06T14:44:41.931Z,35.38
2023-04-06T14:47:14.607Z,38.13
2023-04-06T14:49:43.902Z,34.08
2023-04-06T14:52:13.568Z,32.73
2023-04-06T14:54:42.899Z,32.45
2023-04-06T14:57:12.289Z,33.85
2023-04-06T14:59:41.546Z,36.33
2023-04-06T15:02:11.267Z,35.13
2023-04-06T15:04:41.437Z,33.40
2023-04-06T15:07:12.046Z,32.23
2023-04-06T15:09:41.304Z,32.33
2023-04-06T15:12:10.860Z,32.85
2023-04-06T15:14:40.479Z,32.45
2023-04-06T15:17:10.565Z,31.45
2023-04-06T15:19:39.841Z,29.63
2023-04-06T15:22:09.160Z,35.25
2023-04-06T15:24:38.981Z,32.03
2023-04-06T15:27:08.578Z,33.13
2023-04-06T15:29:38.030Z,34.10
2023-04-06T15:32:09.374Z,35.80
2023-04-06T15:34:38.689Z,38.05
2023-04-06T15:37:08.180Z,36.58
2023-04-06T15:39:37.828Z,34.83
2023-04-06T15:42:07.471Z,38.15
2023-04-06T15:44:36.881Z,36.98
2023-04-06T15:47:06.804Z,36.38
2023-04-06T15:49:36.168Z,34.78
2023-04-06T15:52:05.570Z,32.13
2023-04-06T15:54:36.525Z,34.18
2023-04-06T15:57:05.766Z,35.88
2023-04-06T15:59:35.090Z,37.03
2023-04-06T16:02:04.480Z,33.10
2023-04-06T16:04:33.886Z,30.17
2023-04-06T16:07:03.616Z,33.73
2023-04-06T16:09:33.274Z,30.17
2023-04-06T16:12:02.682Z,33.40
2023-04-06T16:14:32.202Z,30.40
2023-04-06T16:17:02.053Z,34.13
2023-04-06T16:19:31.789Z,33.50
2023-04-06T16:22:01.130Z,33.83
2023-04-06T16:24:30.409Z,35.88
2023-04-06T16:27:00.339Z,33.60
2023-04-06T16:29:31.846Z,34.43
2023-04-06T16:32:02.203Z,39.08
2023-04-06T16:34:35.014Z,38.13
2023-04-06T16:37:04.683Z,37.55
2023-04-06T16:39:34.502Z,39.15
2023-04-06T16:42:04.064Z,35.83
2023-04-06T16:44:33.495Z,33.30
2023-04-06T16:47:02.792Z,36.80
2023-04-06T16:49:32.086Z,38.15
2023-04-06T16:52:03.199Z,40.55
2023-04-06T16:54:34.315Z,36.88
2023-04-06T16:57:05.183Z,37.17
2023-04-06T16:59:35.360Z,39.15
2023-04-06T17:02:04.671Z,37.53
2023-04-06T17:04:34.375Z,39.75
2023-04-06T17:07:03.892Z,38.83
2023-04-06T17:12:03.462Z,37.50
2023-04-06T17:14:32.832Z,38.60
2023-04-06T17:17:03.730Z,43.65
2023-04-06T17:19:33.251Z,41.45
2023-04-06T17:22:03.291Z,44.03
2023-04-06T17:24:32.652Z,46.18
2023-04-06T17:27:02.976Z,44.67
2023-04-06T17:29:32.243Z,44.30
2023-04-06T17:32:01.837Z,45.98
2023-04-06T17:34:31.194Z,50.65
2023-04-06T17:37:00.489Z,50.30
2023-04-06T17:39:29.758Z,53.40
2023-04-06T17:42:00.255Z,48.63
2023-04-06T17:44:29.572Z,49.53
2023-04-06T17:46:59.126Z,49.73
2023-04-06T17:49:28.416Z,47.93
2023-04-06T17:51:58.079Z,50.48
2023-04-06T17:54:27.350Z,53.70
2023-04-06T17:56:57.479Z,48.35
2023-04-06T17:59:27.167Z,52.43
2023-04-06T18:01:56.751Z,55.63
2023-04-06T18:04:26.673Z,56.23
2023-04-06T18:06:56.502Z,57.43
2023-04-06T18:11:57.308Z,58.60
2023-04-06T18:14:27.126Z,59.33
2023-04-06T18:16:56.750Z,60.90
2023-04-06T18:19:27.960Z,64.90
2023-04-06T18:21:57.493Z,62.65
2023-04-06T18:24:41.377Z,67.90
2023-04-06T18:26:58.816Z,62.25
2023-04-06T18:29:29.763Z,62.25
2023-04-06T18:31:59.157Z,69.20
2023-04-06T18:34:30.155Z,67.12
2023-04-06T18:37:01.759Z,68.70
2023-04-06T18:39:31.564Z,69.90
2023-04-06T18:42:01.476Z,71.62
2023-04-06T18:44:34.156Z,74.17
2023-04-06T18:47:03.729Z,76.90
2023-04-06T18:49:34.404Z,76.60
2023-04-06T18:52:08.440Z,82.70
2023-04-06T18:54:37.849Z,77.55
2023-04-06T18:57:07.236Z,76.75
2023-04-06T18:59:36.645Z,88.87
2023-04-06T19:02:06.704Z,80.50
2023-04-06T19:04:36.212Z,96.72
2023-04-06T19:07:06.588Z,99.13
2023-04-06T19:09:36.023Z,88.45
2023-04-06T19:12:05.560Z,79.85
2023-04-06T19:14:34.933Z,82.27
2023-04-06T19:17:04.446Z,81.10
2023-04-06T19:19:34.338Z,64.62
2023-04-06T19:22:03.830Z,73.25
2023-04-06T19:24:33.397Z,62.90
2023-04-06T19:27:03.349Z,51.53
2023-04-06T19:29:32.772Z,51.70
2023-04-06T19:32:02.691Z,51.23
2023-04-06T19:34:32.416Z,49.18
2023-04-06T19:37:02.719Z,46.75
2023-04-06T19:39:32.160Z,49.55
2023-04-06T19:42:01.626Z,46.20
2023-04-06T19:44:31.029Z,47.83
2023-04-06T19:47:00.941Z,43.28
2023-04-06T19:49:30.277Z,41.18
2023-04-06T19:52:00.046Z,35.50
2023-04-06T19:54:29.362Z,36.28
2023-04-06T19:56:58.737Z,39.65
2023-04-06T19:59:28.286Z,39.27
2023-04-06T20:01:58.336Z,38.33
2023-04-06T20:04:27.965Z,46.15
2023-04-06T20:06:57.332Z,54.35
2023-04-06T20:09:27.220Z,50.23
2023-04-06T20:11:56.706Z,55.05
2023-04-06T20:14:26.546Z,51.08
2023-04-06T20:16:56.239Z,58.30
2023-04-06T20:19:25.857Z,54.45
2023-04-06T20:21:55.765Z,51.42
2023-04-06T20:24:25.216Z,56.05
2023-04-06T20:26:54.756Z,47.50
2023-04-06T20:29:24.000Z,51.55
2023-04-06T20:31:53.667Z,52.15
2023-04-06T20:34:24.607Z,41.45
2023-04-06T20:36:53.934Z,39.25
2023-04-06T20:39:24.121Z,52.30
2023-04-06T20:41:53.710Z,56.08
2023-04-06T20:44:24.628Z,58.75
2023-04-06T20:46:54.204Z,48.13
2023-04-06T20:49:24.192Z,43.08
2023-04-06T20:51:53.651Z,50.08
2023-04-06T20:54:23.091Z,40.45
2023-04-06T20:56:52.457Z,38.83
2023-04-06T20:59:21.733Z,37.95
2023-04-06T21:01:52.866Z,37.17
2023-04-06T21:04:23.199Z,32.73
2023-04-06T21:06:53.790Z,32.67
2023-04-06T21:09:24.882Z,28.60
2023-04-06T21:11:54.847Z,30.30
2023-04-06T21:14:24.613Z,27.85
2023-04-06T21:16:55.851Z,33.78
2023-04-06T21:19:25.784Z,28.65
2023-04-06T21:21:55.874Z,26.42
2023-04-06T21:24:25.949Z,25.77
2023-04-06T21:26:55.270Z,23.32
2023-04-06T21:29:24.778Z,22.40
2023-04-06T21:31:55.624Z,18.75
2023-04-06T21:34:25.153Z,20.23
2023-04-06T21:36:54.481Z,15.78
2023-04-06T21:39:25.590Z,21.00
2023-04-06T21:41:54.837Z,18.07
2023-04-06T21:44:24.360Z,16.60
2023-04-06T21:46:53.739Z,19.42
2023-04-06T21:49:23.151Z,19.73
2023-04-06T21:51:52.461Z,15.68
2023-04-06T21:54:21.811Z,19.65
2023-04-06T21:56:51.153Z,13.78
2023-04-06T21:59:20.818Z,15.13
2023-04-06T22:01:50.279Z,13.05
2023-04-06T22:04:20.479Z,12.45
2023-04-06T22:06:51.082Z,12.63
2023-04-06T22:09:20.482Z,16.00
2023-04-06T22:11:49.854Z,16.93
2023-04-06T22:14:19.969Z,14.68
2023-04-06T22:16:49.429Z,18.77
2023-04-06T22:19:18.773Z,16.42
2023-04-06T22:21:48.158Z,16.95
2023-04-06T22:24:18.089Z,15.78
2023-04-06T22:26:47.648Z,17.70
2023-04-06T22:29:17.585Z,18.90
2023-04-06T22:31:47.386Z,19.32
2023-04-06T22:34:17.120Z,19.00
2023-04-06T22:36:46.938Z,17.67
2023-04-06T22:39:16.478Z,18.62
2023-04-06T22:41:46.011Z,17.77
2023-04-06T22:44:15.707Z,19.02
2023-04-06T22:46:45.504Z,21.05
2023-04-06T22:49:14.779Z,19.23
2023-04-06T22:51:44.464Z,19.92
2023-04-06T22:54:14.345Z,20.17
2023-04-06T22:56:43.960Z,21.85
2023-04-06T22:59:13.253Z,19.25
2023-04-06T23:01:42.633Z,22.87
2023-04-06T23:04:12.140Z,18.55
2023-04-06T23:06:41.502Z,18.82
2023-04-06T23:09:10.768Z,22.95
2023-04-06T23:11:40.378Z,28.65
2023-04-06T23:14:09.669Z,26.12
2023-04-06T23:16:39.180Z,22.80
2023-04-06T23:19:08.421Z,28.25
2023-04-06T23:21:37.736Z,27.00
2023-04-06T23:24:07.347Z,26.12
2023-04-06T23:26:36.616Z,27.93
2023-04-06T23:29:05.991Z,25.65
2023-04-06T23:31:35.284Z,31.40
2023-04-06T23:34:04.755Z,32.03
2023-04-06T23:36:34.417Z,34.67
2023-04-06T23:39:03.722Z,32.67
2023-04-06T23:41:33.334Z,31.62
2023-04-06T23:44:02.957Z,37.17
2023-04-06T23:46:32.270Z,39.90
2023-04-06T23:49:01.778Z,39.05
2023-04-06T23:51:31.833Z,43.60
2023-04-06T23:54:01.425Z,41.05
2023-04-06T23:56:30.983Z,40.80
2023-04-06T23:59:00.570Z,40.55
